首页
METAR-TAF:

METAR-TAF

机场 :

種子島機場

種子島, 日本

纬度: 30-33N, 经度: 130-57E, 海拔: 92米

当前天气观测

该预报发布于2小时和14分钟前的09:00 UTC
风速13节,风向西北
温度 14°C
湿度 67%
气压 1019 hPa
能见度10公里或以上
少量云层高于3000英尺

METAR: RJFG 220900Z 31013KT 9999 FEW030 14/08 Q1019

时间: 20:14 (11:14 UTC)


TAF: 丢失

超过4000个机场的气象观测和天气预报(METAR&TAF报告)。

可查询的气象台以黄色和红色小点在地图上表示。

将鼠标移到小点上方,可查看气象台名称。

然后点击查看天气观测和预报。

如需切换地图:点击带黑十字的绿色按钮放大地图;点击带横线的绿色按钮缩小地图;或者点击绿色箭头查看邻近地区的地图。


METAR-TAF: